Time;durP1;ratioP1;P1;durP2;ratioP2;P2;SDS_P1;SDS_P2;PMS_P1;PMS_P2;Temp;Humidity;BMP_temperature;BMP_pressure;BME280_temperature;BME280_humidity;BME280_pressure;Samples;Min_cycle;Max_cycle;Signal;HPM_P1;HPM_P2
2020/12/05 00:00:07;;;;;;;16.60;5.47;;;3.40;99.90;;;;;;5053200;28;20144;-80
2020/12/05 00:02:33;;;;;;;15.85;5.97;;;3.50;99.90;;;;;;5070054;28;20068;-78
2020/12/05 00:04:58;;;;;;;11.43;5.63;;;3.50;99.90;;;;;;5054292;28;20028;-80
2020/12/05 00:07:24;;;;;;;12.98;5.60;;;3.50;99.90;;;;;;5052911;28;20136;-78
2020/12/05 00:09:50;;;;;;;12.82;4.97;;;3.50;99.90;;;;;;5053800;28;20052;-79
2020/12/05 00:12:16;;;;;;;17.00;5.35;;;3.50;99.90;;;;;;5053201;28;20029;-80
2020/12/05 00:14:41;;;;;;;13.45;5.00;;;3.50;99.90;;;;;;5054163;28;20055;-81
2020/12/05 00:17:08;;;;;;;10.75;5.55;;;3.50;99.90;;;;;;5052736;28;20123;-79
2020/12/05 00:19:34;;;;;;;10.48;5.13;;;3.50;99.90;;;;;;5052226;28;20024;-79
2020/12/05 00:21:59;;;;;;;14.80;5.47;;;3.50;99.90;;;;;;5052544;28;20412;-80
2020/12/05 00:24:26;;;;;;;11.00;4.82;;;3.50;99.90;;;;;;5053016;28;20025;-79
2020/12/05 00:26:53;;;;;;;12.85;5.63;;;3.50;99.90;;;;;;5069222;28;20032;-79
2020/12/05 00:29:19;;;;;;;13.07;5.22;;;3.50;99.90;;;;;;5052537;28;20045;-80
2020/12/05 00:31:52;;;;;;;10.40;4.43;;;3.40;99.90;;;;;;5052111;28;20470;-80
2020/12/05 00:34:21;;;;;;;11.15;5.75;;;3.50;99.90;;;;;;5051040;28;20032;-79
2020/12/05 00:36:47;;;;;;;14.35;6.18;;;3.40;99.90;;;;;;5068131;28;20067;-80
2020/12/05 00:39:14;;;;;;;14.35;6.10;;;3.40;99.90;;;;;;5053794;28;20083;-78
2020/12/05 00:41:41;;;;;;;20.38;6.38;;;3.40;99.90;;;;;;5053838;28;20029;-80
2020/12/05 00:44:08;;;;;;;11.75;6.03;;;3.40;99.90;;;;;;5053897;28;20056;-81
2020/12/05 00:46:34;;;;;;;12.95;6.57;;;3.40;99.90;;;;;;5051984;28;20029;-79
2020/12/05 00:48:59;;;;;;;14.25;6.93;;;3.40;99.90;;;;;;5053688;28;20026;-80
2020/12/05 00:51:25;;;;;;;11.48;6.15;;;3.40;99.90;;;;;;5052384;28;20106;-78
2020/12/05 00:53:50;;;;;;;11.70;4.50;;;3.40;99.90;;;;;;5052725;28;20458;-78
2020/12/05 00:56:23;;;;;;;13.73;5.95;;;3.30;99.90;;;;;;5053336;28;20081;-79
2020/12/05 00:58:48;;;;;;;8.45;4.93;;;3.40;99.90;;;;;;5053861;28;20085;-79
2020/12/05 01:01:16;;;;;;;9.63;5.38;;;3.30;99.90;;;;;;5053547;28;20025;-79
2020/12/05 01:03:42;;;;;;;11.30;5.70;;;3.30;99.90;;;;;;5053301;28;20057;-80
2020/12/05 01:06:15;;;;;;;12.55;6.07;;;3.30;99.90;;;;;;5053313;28;20381;-80
2020/12/05 01:08:44;;;;;;;11.95;5.93;;;3.20;99.90;;;;;;5052174;28;20036;-80
2020/12/05 01:11:18;;;;;;;16.95;5.50;;;3.20;99.90;;;;;;5051990;28;20045;-81
2020/12/05 01:13:46;;;;;;;11.73;5.05;;;3.10;99.90;;;;;;5053305;28;20037;-81
2020/12/05 01:16:17;;;;;;;10.32;5.45;;;3.10;99.90;;;;;;5052454;28;20033;-82
2020/12/05 01:18:44;;;;;;;10.13;5.38;;;3.10;99.90;;;;;;5050867;28;20355;-80
2020/12/05 01:21:12;;;;;;;13.48;5.07;;;3.10;99.90;;;;;;5052005;28;20026;-80
2020/12/05 01:23:37;;;;;;;11.25;5.47;;;3.10;99.90;;;;;;5052127;28;20028;-79
2020/12/05 01:26:04;;;;;;;13.43;5.68;;;3.10;99.90;;;;;;5052318;28;20034;-81
2020/12/05 01:28:30;;;;;;;9.95;5.30;;;3.10;99.90;;;;;;5051819;28;20022;-79
2020/12/05 01:30:56;;;;;;;11.15;5.60;;;3.10;99.90;;;;;;5053013;28;20092;-80
2020/12/05 01:33:22;;;;;;;16.52;5.13;;;3.00;99.90;;;;;;5053906;28;20026;-80
2020/12/05 01:35:47;;;;;;;13.27;5.85;;;3.00;99.90;;;;;;5052320;28;20025;-78
2020/12/05 01:38:13;;;;;;;17.15;6.43;;;2.90;99.90;;;;;;5052046;28;20017;-81
2020/12/05 01:40:39;;;;;;;13.48;6.07;;;3.00;99.90;;;;;;5052610;28;20025;-81
2020/12/05 01:43:05;;;;;;;12.73;5.80;;;3.00;99.90;;;;;;5053457;28;20043;-78
2020/12/05 01:45:30;;;;;;;12.25;5.57;;;3.00;99.90;;;;;;5055982;28;20025;-80
2020/12/05 01:47:56;;;;;;;13.65;5.45;;;3.10;99.90;;;;;;5055241;28;20053;-78
2020/12/05 01:50:22;;;;;;;10.63;5.60;;;3.10;99.90;;;;;;5055988;28;20031;-78
2020/12/05 01:52:49;;;;;;;13.48;5.25;;;3.10;99.90;;;;;;5056626;28;20072;-79
2020/12/05 01:55:15;;;;;;;13.32;6.10;;;3.10;99.90;;;;;;5055218;28;20138;-82
2020/12/05 01:57:43;;;;;;;10.45;5.55;;;3.10;99.90;;;;;;5054054;28;20048;-80
2020/12/05 02:00:08;;;;;;;12.75;5.05;;;3.10;99.90;;;;;;5055669;28;20020;-80
2020/12/05 02:02:36;;;;;;;11.80;5.30;;;3.10;99.90;;;;;;5054346;28;20064;-78
2020/12/05 02:05:24;;;;;;;13.27;5.78;;;3.10;99.90;;;;;;5053679;28;20037;-79
2020/12/05 02:07:59;;;;;;;14.15;5.72;;;3.10;99.90;;;;;;5056149;28;20025;-80
2020/12/05 02:10:36;;;;;;;11.38;6.05;;;3.10;99.90;;;;;;5053277;28;20022;-80
2020/12/05 02:13:12;;;;;;;15.13;4.82;;;3.10;99.90;;;;;;5055560;28;20044;-80
2020/12/05 02:15:39;;;;;;;10.23;4.88;;;3.10;99.90;;;;;;5054094;28;20022;-77
2020/12/05 02:18:07;;;;;;;12.02;6.28;;;3.10;99.90;;;;;;5054737;28;20049;-78
2020/12/05 02:20:35;;;;;;;15.40;6.13;;;3.10;99.90;;;;;;5071429;28;20112;-79
2020/12/05 02:23:15;;;;;;;14.02;6.18;;;3.10;99.90;;;;;;5056530;28;20037;-78
2020/12/05 02:25:50;;;;;;;13.45;7.00;;;3.10;99.90;;;;;;5054410;28;20037;-80
2020/12/05 02:28:20;;;;;;;13.95;5.80;;;3.10;99.90;;;;;;5055416;28;20497;-81
2020/12/05 02:30:47;;;;;;;19.73;6.63;;;3.10;99.90;;;;;;5053562;28;20466;-80
2020/12/05 02:33:13;;;;;;;16.08;6.60;;;3.00;99.90;;;;;;5053802;28;20066;-80
2020/12/05 02:35:39;;;;;;;17.67;6.90;;;3.10;99.90;;;;;;5055573;28;20032;-78
2020/12/05 02:38:18;;;;;;;9.35;5.18;;;3.00;99.90;;;;;;5053260;28;20021;-79
2020/12/05 02:40:45;;;;;;;11.73;5.38;;;3.00;99.90;;;;;;5052197;28;20048;-78
2020/12/05 02:43:12;;;;;;;13.73;5.88;;;2.90;99.90;;;;;;5054361;28;20026;-79
2020/12/05 02:45:40;;;;;;;14.95;6.88;;;2.90;99.90;;;;;;5054570;28;20056;-80
2020/12/05 02:48:07;;;;;;;12.80;5.55;;;2.90;99.90;;;;;;5055512;28;20025;-80
2020/12/05 02:50:33;;;;;;;13.10;5.78;;;2.90;99.90;;;;;;5056454;28;20108;-79
2020/12/05 02:52:59;;;;;;;21.58;6.32;;;2.80;99.90;;;;;;5055957;28;20017;-78
2020/12/05 02:55:24;;;;;;;15.88;6.43;;;2.80;99.90;;;;;;5054427;28;20029;-80
2020/12/05 02:57:50;;;;;;;14.73;6.20;;;2.80;99.90;;;;;;5054033;28;20410;-79
2020/12/05 03:00:16;;;;;;;15.18;6.95;;;2.80;99.90;;;;;;5056049;28;20040;-80
2020/12/05 03:02:42;;;;;;;18.98;7.20;;;2.80;99.90;;;;;;5053307;28;20163;-80
2020/12/05 03:05:08;;;;;;;17.42;5.78;;;2.80;99.90;;;;;;5054206;28;20028;-79
2020/12/05 03:07:33;;;;;;;12.18;6.40;;;2.80;99.90;;;;;;5054512;28;20037;-78
2020/12/05 03:09:59;;;;;;;14.38;6.38;;;2.80;99.90;;;;;;5054756;28;20032;-78
2020/12/05 03:12:24;;;;;;;16.70;6.68;;;2.80;99.90;;;;;;5053913;28;20026;-78
2020/12/05 03:14:50;;;;;;;19.55;6.72;;;2.90;99.90;;;;;;5053243;28;20021;-79
2020/12/05 03:17:15;;;;;;;15.18;6.57;;;2.90;99.90;;;;;;5053664;28;20022;-78
2020/12/05 03:19:41;;;;;;;16.95;7.40;;;2.90;99.90;;;;;;5055276;28;20029;-80
2020/12/05 03:22:07;;;;;;;11.95;5.75;;;2.90;99.90;;;;;;5053601;28;20065;-77
2020/12/05 03:24:32;;;;;;;15.85;6.40;;;3.00;99.90;;;;;;5053487;28;20070;-79
2020/12/05 03:26:58;;;;;;;12.18;5.68;;;3.00;99.90;;;;;;5053855;28;20028;-78
2020/12/05 03:29:24;;;;;;;20.92;7.88;;;2.80;99.90;;;;;;5055262;28;20029;-79
2020/12/05 03:31:56;;;;;;;16.50;6.78;;;3.00;99.90;;;;;;5053430;28;20375;-77
2020/12/05 03:34:22;;;;;;;17.17;7.65;;;2.90;99.90;;;;;;5054699;28;20442;-78
2020/12/05 03:36:48;;;;;;;12.80;4.70;;;2.90;99.90;;;;;;5053564;28;20021;-80
2020/12/05 03:39:14;;;;;;;15.52;6.30;;;2.80;99.90;;;;;;5054007;28;20051;-79
2020/12/05 03:41:39;;;;;;;13.02;6.00;;;2.80;99.90;;;;;;5053956;28;20080;-80
2020/12/05 03:44:05;;;;;;;14.20;7.15;;;2.80;99.90;;;;;;5052013;28;20013;-80
2020/12/05 03:46:31;;;;;;;19.33;7.68;;;2.80;99.90;;;;;;5052759;28;20063;-79
2020/12/05 03:48:56;;;;;;;16.05;7.32;;;2.80;99.90;;;;;;5052927;28;20025;-79
2020/12/05 03:51:22;;;;;;;19.08;6.57;;;2.80;99.90;;;;;;5053534;28;20474;-79
2020/12/05 03:53:48;;;;;;;15.05;6.97;;;2.80;99.90;;;;;;5053578;28;20089;-79
2020/12/05 03:56:14;;;;;;;16.25;7.43;;;2.80;99.90;;;;;;5053440;28;20017;-78
2020/12/05 03:58:39;;;;;;;14.65;6.95;;;2.80;99.90;;;;;;5055699;28;20105;-78
2020/12/05 04:01:06;;;;;;;14.32;7.10;;;2.80;99.90;;;;;;5054520;28;20025;-79
2020/12/05 04:03:31;;;;;;;10.82;6.38;;;2.80;99.90;;;;;;5060520;28;20731;-78
2020/12/05 04:05:57;;;;;;;12.70;6.57;;;2.90;99.90;;;;;;5052488;28;20033;-78
2020/12/05 04:08:23;;;;;;;16.50;6.63;;;2.80;99.90;;;;;;5052786;28;20338;-77
2020/12/05 04:10:49;;;;;;;13.85;6.45;;;2.80;99.90;;;;;;5055098;28;20018;-80
2020/12/05 04:13:14;;;;;;;12.43;6.53;;;2.80;99.90;;;;;;5052940;28;20044;-80
2020/12/05 04:15:41;;;;;;;15.30;7.72;;;2.80;99.90;;;;;;5052682;28;20079;-79
2020/12/05 04:18:07;;;;;;;18.90;7.50;;;2.80;99.90;;;;;;5052424;28;20044;-79
2020/12/05 04:20:32;;;;;;;13.88;6.65;;;2.90;99.90;;;;;;5053200;28;20029;-78
2020/12/05 04:22:58;;;;;;;10.93;6.80;;;2.80;99.90;;;;;;5052086;28;20021;-81
2020/12/05 04:25:24;;;;;;;16.48;6.68;;;2.80;99.90;;;;;;5052259;28;20033;-80
2020/12/05 04:27:51;;;;;;;15.85;7.05;;;2.80;99.90;;;;;;5053528;28;20025;-78
2020/12/05 04:30:17;;;;;;;16.50;7.50;;;2.70;99.90;;;;;;5067730;28;20052;-78
2020/12/05 04:32:43;;;;;;;17.20;7.20;;;2.70;99.90;;;;;;5053769;28;20035;-80
2020/12/05 04:35:10;;;;;;;13.55;6.63;;;2.70;99.90;;;;;;5054995;28;20466;-80
2020/12/05 04:37:36;;;;;;;11.98;6.45;;;2.70;99.90;;;;;;5052921;28;20041;-78
2020/12/05 04:40:03;;;;;;;20.88;6.88;;;2.70;99.90;;;;;;5052892;28;20052;-79
2020/12/05 04:42:30;;;;;;;14.40;6.88;;;2.70;99.90;;;;;;5053774;28;20032;-78
2020/12/05 04:44:56;;;;;;;15.30;6.93;;;2.70;99.90;;;;;;5052191;28;20466;-79
2020/12/05 04:47:21;;;;;;;11.98;6.30;;;2.70;99.90;;;;;;5053729;28;20056;-78
2020/12/05 04:49:48;;;;;;;15.95;7.05;;;2.70;99.90;;;;;;5052022;28;20021;-79
2020/12/05 04:52:21;;;;;;;13.57;6.10;;;2.70;99.90;;;;;;5052600;28;20044;-78
2020/12/05 04:54:55;;;;;;;12.65;7.60;;;2.70;99.90;;;;;;5053165;28;20029;-76
2020/12/05 04:57:22;;;;;;;;;;;2.70;99.90;;;;;;5053605;28;20064;-79
2020/12/05 04:59:50;;;;;;;13.45;6.18;;;2.70;99.90;;;;;;5060157;28;19901;-78
2020/12/05 05:02:19;;;;;;;17.27;8.75;;;2.70;99.90;;;;;;5053589;28;20022;-76
2020/12/05 05:04:47;;;;;;;19.00;7.47;;;2.70;99.90;;;;;;5053481;28;20043;-78
2020/12/05 05:07:13;;;;;;;18.35;8.40;;;2.70;99.90;;;;;;5067778;28;20037;-79
2020/12/05 05:10:12;;;;;;;11.73;6.65;;;2.70;99.90;;;;;;5061154;28;20028;-78
2020/12/05 05:12:38;;;;;;;11.73;6.82;;;2.70;99.90;;;;;;5051928;28;20188;-78
2020/12/05 05:15:30;;;;;;;12.10;7.32;;;2.70;99.90;;;;;;5052505;28;20021;-77
2020/12/05 05:18:01;;;;;;;13.75;6.85;;;2.70;99.90;;;;;;5053132;28;20045;-75
2020/12/05 05:20:28;;;;;;;15.88;7.72;;;2.70;99.90;;;;;;5057070;28;20052;-78
2020/12/05 05:23:17;;;;;;;14.35;7.57;;;2.70;99.90;;;;;;5058542;28;20025;-78
2020/12/05 05:25:50;;;;;;;14.93;7.60;;;2.70;99.90;;;;;;5057851;28;20021;-77
2020/12/05 05:28:33;;;;;;;14.30;6.22;;;2.70;99.90;;;;;;5055827;28;20045;-79
2020/12/05 05:34:08;;;;;;;17.20;8.13;;;2.70;99.90;;;;;;5097380;27;20025;-79
2020/12/05 05:36:35;;;;;;;17.02;8.30;;;2.80;99.90;;;;;;5056092;28;20018;-78
2020/12/05 05:39:06;;;;;;;20.73;7.82;;;2.60;99.90;;;;;;5057687;28;20020;-80
2020/12/05 05:41:33;;;;;;;20.70;8.65;;;2.60;99.90;;;;;;5055339;28;20025;-77
2020/12/05 05:44:02;;;;;;;17.55;8.07;;;2.60;99.90;;;;;;5055249;28;20049;-78
2020/12/05 05:46:33;;;;;;;17.90;9.27;;;2.70;99.90;;;;;;5055408;28;20088;-77
2020/12/05 05:49:02;;;;;;;21.23;7.55;;;2.60;99.90;;;;;;5055491;28;20017;-75
2020/12/05 05:51:44;;;;;;;16.90;8.30;;;2.60;99.90;;;;;;5055434;28;20017;-76
2020/12/05 05:54:28;;;;;;;17.92;7.82;;;2.60;99.90;;;;;;5055831;28;20036;-76
2020/12/05 05:56:59;;;;;;;15.50;8.00;;;2.60;99.90;;;;;;5055275;28;20028;-77
2020/12/05 05:59:33;;;;;;;16.75;8.00;;;2.60;99.90;;;;;;5056525;28;20025;-78
2020/12/05 06:01:59;;;;;;;25.95;9.77;;;2.50;99.90;;;;;;5054698;28;20021;-79
2020/12/05 06:04:53;;;;;;;14.57;6.97;;;2.50;99.90;;;;;;5055544;28;20513;-78
2020/12/05 06:07:22;;;;;;;16.92;8.18;;;2.50;99.90;;;;;;5055137;28;20119;-79
2020/12/05 06:09:53;;;;;;;18.83;7.90;;;2.50;99.90;;;;;;5055379;28;20037;-79
2020/12/05 06:12:27;;;;;;;16.52;7.53;;;2.50;99.90;;;;;;5055620;28;20051;-79
2020/12/05 06:14:54;;;;;;;20.85;8.57;;;2.50;99.90;;;;;;5054249;28;20377;-78
2020/12/05 06:17:23;;;;;;;14.75;6.85;;;2.50;99.90;;;;;;5055657;28;20496;-79
2020/12/05 06:19:50;;;;;;;16.67;9.15;;;2.50;99.90;;;;;;5055309;28;20025;-79
2020/12/05 06:22:25;;;;;;;19.35;7.95;;;2.50;99.90;;;;;;5057036;28;20029;-80
2020/12/05 06:25:00;;;;;;;21.55;7.85;;;2.50;99.90;;;;;;5054539;28;20044;-82
2020/12/05 06:27:27;;;;;;;22.75;7.25;;;2.50;99.90;;;;;;5054587;28;20044;-79
2020/12/05 06:29:53;;;;;;;21.52;7.72;;;2.50;99.90;;;;;;5055557;28;20036;-78
2020/12/05 06:32:39;;;;;;;13.45;7.82;;;2.50;99.90;;;;;;5054193;28;20047;-79
2020/12/05 06:35:21;;;;;;;15.10;7.32;;;2.50;99.90;;;;;;5054463;28;20119;-78
2020/12/05 06:37:47;;;;;;;14.25;8.50;;;2.50;99.90;;;;;;5055408;28;20108;-79
2020/12/05 06:40:13;;;;;;;20.10;7.43;;;2.40;99.90;;;;;;5071442;28;20028;-80
2020/12/05 06:42:46;;;;;;;12.02;7.40;;;2.40;99.90;;;;;;5056030;28;20035;-79
2020/12/05 06:45:27;;;;;;;17.27;7.57;;;2.40;99.90;;;;;;5053455;28;20036;-80
2020/12/05 06:48:08;;;;;;;23.50;9.25;;;2.40;99.90;;;;;;5054871;28;20034;-79
2020/12/05 06:50:35;;;;;;;22.42;9.52;;;2.40;99.90;;;;;;5054760;28;20036;-81
2020/12/05 06:53:01;;;;;;;17.80;7.78;;;2.30;99.90;;;;;;5054599;28;20017;-79
2020/12/05 06:55:32;;;;;;;18.40;9.15;;;2.30;99.90;;;;;;5053829;28;20041;-80
2020/12/05 06:58:05;;;;;;;20.55;8.98;;;2.30;99.90;;;;;;5061123;28;20108;-80
2020/12/05 07:00:33;;;;;;;19.27;8.43;;;2.30;99.90;;;;;;5055145;28;20725;-80
2020/12/05 07:03:04;;;;;;;15.82;8.18;;;2.30;99.90;;;;;;5053203;28;20053;-81
2020/12/05 07:05:41;;;;;;;18.23;7.45;;;2.20;99.90;;;;;;5054529;28;20442;-81
2020/12/05 07:08:33;;;;;;;18.23;8.15;;;2.20;99.90;;;;;;5054748;28;20041;-81
2020/12/05 07:11:07;;;;;;;15.25;7.82;;;2.30;99.90;;;;;;5053891;28;20025;-81
2020/12/05 07:13:41;;;;;;;17.30;7.88;;;2.30;99.90;;;;;;5053635;28;20037;-81
2020/12/05 07:16:15;;;;;;;18.50;8.82;;;2.30;99.90;;;;;;5055082;28;20075;-81
2020/12/05 07:18:46;;;;;;;15.68;8.25;;;2.30;99.90;;;;;;5054141;28;20029;-82
2020/12/05 07:21:13;;;;;;;18.08;8.77;;;2.30;99.90;;;;;;5052417;28;20033;-80
2020/12/05 07:23:39;;;;;;;20.30;8.70;;;2.40;99.90;;;;;;5061169;28;20545;-81
2020/12/05 07:26:06;;;;;;;18.45;7.07;;;2.40;99.90;;;;;;5054766;28;20053;-81
2020/12/05 07:28:32;;;;;;;19.73;8.00;;;2.40;99.90;;;;;;5052256;28;20089;-80
2020/12/05 07:30:58;;;;;;;16.73;7.90;;;2.40;99.90;;;;;;5053295;28;20021;-80
2020/12/05 07:33:24;;;;;;;16.45;7.40;;;2.40;99.90;;;;;;5053413;28;20033;-80
2020/12/05 07:36:07;;;;;;;23.50;8.60;;;2.40;99.90;;;;;;5053233;28;20036;-80
2020/12/05 07:38:35;;;;;;;20.58;8.32;;;2.40;99.90;;;;;;5052873;28;20029;-79
2020/12/05 07:41:19;;;;;;;11.93;6.65;;;2.40;99.90;;;;;;5053878;28;20036;-79
2020/12/05 07:43:45;;;;;;;22.47;9.83;;;2.30;99.90;;;;;;5054513;28;20025;-79
2020/12/05 07:46:12;;;;;;;17.63;8.25;;;2.30;99.90;;;;;;5054777;28;20037;-78
2020/12/05 07:48:39;;;;;;;21.88;8.43;;;2.20;99.90;;;;;;5060671;28;20115;-79
2020/12/05 07:51:16;;;;;;;23.02;9.38;;;2.20;99.90;;;;;;5053080;28;20159;-76
2020/12/05 07:53:44;;;;;;;15.65;8.25;;;2.20;99.90;;;;;;5052364;28;20022;-78
2020/12/05 07:56:21;;;;;;;18.80;8.10;;;2.20;99.90;;;;;;5053990;28;20469;-75
2020/12/05 07:58:47;;;;;;;22.70;8.60;;;2.20;99.90;;;;;;5054227;28;20385;-76
2020/12/05 08:01:28;;;;;;;19.35;8.52;;;2.20;99.90;;;;;;5069359;28;20074;-79
2020/12/05 08:04:21;;;;;;;13.30;7.38;;;2.20;99.90;;;;;;5052330;28;20084;-78
2020/12/05 08:07:01;;;;;;;23.92;7.85;;;2.20;99.90;;;;;;5052759;28;20037;-80
2020/12/05 08:09:35;;;;;;;22.70;9.05;;;2.20;99.90;;;;;;5051073;28;20025;-80
2020/12/05 08:12:03;;;;;;;13.85;6.85;;;2.20;99.90;;;;;;5051838;28;20036;-80
2020/12/05 08:14:32;;;;;;;27.45;9.13;;;2.20;99.90;;;;;;5053512;28;20031;-80
2020/12/05 08:17:01;;;;;;;20.20;9.68;;;2.10;99.90;;;;;;5051755;28;20478;-79
2020/12/05 08:19:27;;;;;;;17.95;9.10;;;2.10;99.90;;;;;;5051811;28;20038;-80
2020/12/05 08:21:53;;;;;;;19.33;7.47;;;2.20;99.90;;;;;;5053026;28;20143;-79
2020/12/05 08:24:19;;;;;;;18.52;7.78;;;2.20;99.90;;;;;;5053552;28;20029;-79
2020/12/05 08:26:50;;;;;;;19.73;8.93;;;2.20;99.90;;;;;;5054068;28;20488;-79
2020/12/05 08:29:17;;;;;;;19.95;8.45;;;2.20;99.90;;;;;;5068678;28;20082;-78
2020/12/05 08:31:46;;;;;;;17.58;7.63;;;2.20;99.90;;;;;;5052564;28;20029;-78
2020/12/05 08:34:14;;;;;;;19.15;8.38;;;2.30;99.90;;;;;;5054818;28;20525;-78
2020/12/05 08:36:44;;;;;;;16.67;8.23;;;2.30;99.90;;;;;;5053797;28;20021;-76
2020/12/05 08:39:15;;;;;;;20.75;9.63;;;2.30;99.90;;;;;;5052618;28;20036;-76
2020/12/05 08:41:47;;;;;;;18.40;7.78;;;2.30;99.90;;;;;;5051746;28;20025;-77
2020/12/05 08:44:17;;;;;;;16.13;8.85;;;2.30;99.90;;;;;;5052895;28;20021;-77
2020/12/05 08:46:44;;;;;;;23.00;10.02;;;2.40;99.90;;;;;;5052924;28;20067;-77
2020/12/05 08:49:19;;;;;;;17.10;8.20;;;2.30;99.90;;;;;;5053936;28;20014;-75
2020/12/05 08:51:51;;;;;;;15.68;8.60;;;2.30;99.90;;;;;;5055073;28;20025;-76
2020/12/05 08:54:16;;;;;;;16.52;8.75;;;2.30;99.90;;;;;;5053010;28;20080;-78
2020/12/05 08:56:45;;;;;;;19.50;8.85;;;2.30;99.90;;;;;;5053438;28;20056;-77
2020/12/05 08:59:23;;;;;;;16.10;7.75;;;2.30;99.90;;;;;;5060396;28;20018;-77
2020/12/05 09:01:52;;;;;;;19.98;10.27;;;2.30;99.90;;;;;;5056315;28;20120;-77
2020/12/05 09:04:32;;;;;;;20.33;9.82;;;2.20;99.90;;;;;;5062347;28;20111;-76
2020/12/05 09:07:08;;;;;;;17.85;8.05;;;2.20;99.90;;;;;;5054724;28;20037;-75
2020/12/05 09:09:34;;;;;;;19.33;8.18;;;2.30;99.90;;;;;;5052531;28;20036;-75
2020/12/05 09:12:06;;;;;;;15.27;8.02;;;2.20;99.90;;;;;;5054609;28;20018;-75
2020/12/05 09:14:31;;;;;;;15.77;7.20;;;2.30;99.90;;;;;;5054222;28;20075;-75
2020/12/05 09:16:57;;;;;;;19.58;8.20;;;2.30;99.90;;;;;;5052794;28;20025;-75
2020/12/05 09:19:24;;;;;;;24.77;8.95;;;2.30;99.90;;;;;;5052544;28;20044;-75
2020/12/05 09:21:50;;;;;;;18.13;8.68;;;2.30;99.90;;;;;;5053009;28;20029;-76
2020/12/05 09:24:16;;;;;;;18.55;9.25;;;2.30;99.90;;;;;;5054097;28;20098;-76
2020/12/05 09:26:52;;;;;;;19.10;9.52;;;2.30;99.90;;;;;;5053347;28;20080;-77
2020/12/05 09:29:18;;;;;;;20.58;9.95;;;2.30;99.90;;;;;;5052414;28;20029;-75
2020/12/05 09:31:56;;;;;;;16.33;8.63;;;2.30;99.90;;;;;;5053745;28;20108;-77
2020/12/05 09:34:38;;;;;;;22.30;10.50;;;2.30;99.90;;;;;;5054621;28;20373;-75
2020/12/05 09:37:14;;;;;;;18.67;9.32;;;2.30;99.90;;;;;;5052598;28;20038;-76
2020/12/05 09:39:40;;;;;;;19.42;9.07;;;2.40;99.90;;;;;;5053179;28;20046;-77
2020/12/05 09:42:06;;;;;;;16.27;9.02;;;2.30;99.90;;;;;;5053336;28;20017;-77
2020/12/05 09:44:33;;;;;;;21.35;10.70;;;2.30;99.90;;;;;;5052417;28;20025;-77
2020/12/05 09:47:01;;;;;;;21.80;9.45;;;2.30;99.90;;;;;;5054034;28;20041;-78
2020/12/05 09:49:28;;;;;;;23.23;9.60;;;2.40;99.90;;;;;;5053909;28;20026;-77
2020/12/05 09:51:53;;;;;;;21.17;9.15;;;2.40;99.90;;;;;;5053670;28;20025;-78
2020/12/05 09:54:19;;;;;;;18.95;9.38;;;2.50;99.90;;;;;;5051942;28;20024;-78
2020/12/05 09:56:49;;;;;;;24.23;10.77;;;2.60;99.90;;;;;;5051541;28;20032;-80
2020/12/05 09:59:15;;;;;;;25.52;10.20;;;2.60;99.90;;;;;;5062008;28;20029;-79
2020/12/05 10:01:41;;;;;;;24.92;10.25;;;2.70;99.90;;;;;;5060275;28;20029;-80
2020/12/05 10:04:07;;;;;;;23.38;11.75;;;2.70;99.90;;;;;;5050425;28;20072;-80
2020/12/05 10:06:32;;;;;;;16.63;9.25;;;2.80;99.90;;;;;;5056066;28;20041;-77
2020/12/05 10:08:58;;;;;;;21.67;10.10;;;2.90;99.90;;;;;;5056175;28;20045;-78
2020/12/05 10:11:23;;;;;;;20.80;9.65;;;2.90;99.90;;;;;;5055482;28;20366;-77
2020/12/05 10:13:49;;;;;;;21.63;9.63;;;3.00;99.90;;;;;;5055760;28;20029;-77
2020/12/05 10:16:14;;;;;;;17.85;9.98;;;3.10;99.90;;;;;;5056945;28;20048;-78
2020/12/05 10:18:40;;;;;;;21.52;10.98;;;3.10;99.90;;;;;;5055796;28;20022;-77
2020/12/05 10:21:07;;;;;;;17.90;9.50;;;3.20;99.90;;;;;;5056476;28;20021;-77
2020/12/05 10:23:32;;;;;;;25.63;11.18;;;3.20;99.90;;;;;;5057245;28;20044;-77
2020/12/05 10:25:58;;;;;;;23.15;9.43;;;3.10;99.90;;;;;;5056969;28;20405;-77
2020/12/05 10:28:23;;;;;;;20.90;8.60;;;3.10;99.90;;;;;;5057295;28;20034;-78
2020/12/05 10:30:49;;;;;;;23.67;9.52;;;3.00;99.90;;;;;;5054763;28;20389;-78
2020/12/05 10:33:14;;;;;;;21.73;9.48;;;3.00;99.90;;;;;;5056112;28;20025;-80
2020/12/05 10:35:40;;;;;;;16.83;8.45;;;2.90;99.90;;;;;;5054439;28;20053;-78
2020/12/05 10:38:05;;;;;;;20.65;9.50;;;3.00;99.90;;;;;;5055579;28;20021;-79
2020/12/05 10:40:31;;;;;;;14.00;8.05;;;3.00;99.90;;;;;;5054274;28;20032;-79
2020/12/05 10:42:57;;;;;;;19.95;10.10;;;3.00;99.90;;;;;;5055911;28;20025;-79
2020/12/05 10:45:23;;;;;;;17.50;9.10;;;3.10;99.90;;;;;;5054585;28;20021;-80
2020/12/05 10:47:49;;;;;;;17.10;9.38;;;3.20;99.90;;;;;;5055057;28;20041;-80
2020/12/05 10:50:15;;;;;;;16.40;7.45;;;3.30;99.90;;;;;;5057548;28;20104;-79
2020/12/05 10:52:41;;;;;;;23.35;10.13;;;3.40;99.90;;;;;;5054236;28;20032;-79
2020/12/05 10:55:06;;;;;;;22.35;9.45;;;3.50;99.90;;;;;;5053826;28;20025;-79
2020/12/05 10:57:32;;;;;;;24.77;9.55;;;3.50;99.90;;;;;;5053632;28;20048;-78
2020/12/05 10:59:58;;;;;;;19.60;8.55;;;3.60;99.90;;;;;;5056262;28;20029;-79
2020/12/05 11:02:23;;;;;;;19.70;8.25;;;3.70;99.90;;;;;;5060317;28;20025;-79
2020/12/05 11:04:49;;;;;;;20.13;9.60;;;3.80;99.90;;;;;;5053887;28;20029;-79
2020/12/05 11:07:14;;;;;;;15.88;7.40;;;3.90;99.90;;;;;;5053961;28;20033;-77
2020/12/05 11:09:40;;;;;;;29.60;9.38;;;4.00;99.90;;;;;;5053803;28;20021;-77
2020/12/05 11:12:05;;;;;;;15.95;6.32;;;4.00;99.90;;;;;;5055118;28;20028;-78
2020/12/05 11:14:31;;;;;;;23.50;8.45;;;4.10;99.90;;;;;;5054205;28;20032;-78
2020/12/05 11:16:56;;;;;;;22.77;9.02;;;4.10;99.90;;;;;;5054733;28;20062;-78
2020/12/05 11:19:22;;;;;;;37.85;7.80;;;4.20;99.90;;;;;;5055061;28;20081;-78
2020/12/05 11:21:48;;;;;;;21.50;9.82;;;4.30;99.90;;;;;;5054392;28;20021;-79
2020/12/05 11:24:13;;;;;;;19.02;9.20;;;4.40;99.90;;;;;;5053439;28;20037;-79
2020/12/05 11:26:39;;;;;;;26.65;8.50;;;4.60;99.90;;;;;;5053209;28;20068;-77
2020/12/05 11:29:05;;;;;;;17.98;8.50;;;4.80;99.90;;;;;;5054308;28;20351;-77
2020/12/05 11:31:30;;;;;;;14.52;8.70;;;5.10;99.90;;;;;;5055332;28;20025;-77
2020/12/05 11:33:56;;;;;;;17.02;7.18;;;5.50;99.90;;;;;;5053504;28;20021;-77
2020/12/05 11:36:22;;;;;;;13.25;6.97;;;6.00;99.90;;;;;;5055624;28;20036;-77
2020/12/05 11:38:47;;;;;;;12.93;6.82;;;6.40;99.90;;;;;;5052725;28;20017;-78
2020/12/05 11:41:13;;;;;;;11.95;6.60;;;6.70;99.90;;;;;;5054192;28;20021;-78
2020/12/05 11:43:38;;;;;;;12.48;5.72;;;7.00;99.90;;;;;;5053817;28;20028;-77
2020/12/05 11:46:04;;;;;;;12.48;5.88;;;7.50;99.90;;;;;;5055231;28;20049;-79
2020/12/05 11:48:30;;;;;;;10.93;7.05;;;8.10;99.90;;;;;;5053588;28;20037;-78
2020/12/05 11:50:55;;;;;;;9.25;5.53;;;8.60;99.90;;;;;;5054459;28;20025;-77
2020/12/05 11:53:21;;;;;;;13.70;7.70;;;9.00;99.90;;;;;;5054731;28;20025;-78
2020/12/05 11:55:48;;;;;;;12.68;6.75;;;9.20;99.90;;;;;;5051839;28;20028;-76
2020/12/05 11:58:13;;;;;;;19.27;7.68;;;9.40;99.90;;;;;;5054428;28;20041;-78
2020/12/05 12:00:39;;;;;;;9.43;5.65;;;9.40;99.90;;;;;;5054473;28;21052;-78
2020/12/05 12:03:05;;;;;;;11.65;5.85;;;9.40;99.90;;;;;;5051898;28;20049;-79
2020/12/05 12:05:30;;;;;;;9.98;6.25;;;9.50;99.90;;;;;;5052084;28;20051;-78
2020/12/05 12:07:56;;;;;;;10.80;6.60;;;9.60;99.90;;;;;;5044216;28;20033;-79
2020/12/05 12:10:21;;;;;;;12.32;6.68;;;9.50;99.90;;;;;;5045668;28;20116;-79
2020/12/05 12:12:47;;;;;;;11.95;6.03;;;9.50;99.90;;;;;;5044367;28;20022;-79
2020/12/05 12:15:14;;;;;;;12.25;6.25;;;9.40;99.90;;;;;;5045181;28;20029;-79
2020/12/05 12:17:41;;;;;;;13.55;6.38;;;9.40;99.90;;;;;;5044297;28;20021;-79
2020/12/05 12:20:06;;;;;;;12.95;6.05;;;9.40;99.90;;;;;;5044804;28;20021;-78
2020/12/05 12:22:32;;;;;;;13.63;6.53;;;9.10;99.90;;;;;;5046457;28;20047;-77
2020/12/05 12:24:57;;;;;;;15.32;5.95;;;8.70;99.90;;;;;;5046699;28;20049;-76
2020/12/05 12:27:23;;;;;;;14.43;7.13;;;8.30;99.90;;;;;;5045300;28;20038;-78
2020/12/05 12:29:48;;;;;;;13.85;6.07;;;7.90;99.90;;;;;;5058350;28;20025;-80
2020/12/05 12:32:14;;;;;;;13.40;6.13;;;7.70;99.90;;;;;;5060933;28;20024;-78
2020/12/05 12:34:40;;;;;;;11.60;5.80;;;7.80;99.90;;;;;;5061466;28;20024;-79
2020/12/05 12:37:05;;;;;;;13.45;6.45;;;8.20;99.90;;;;;;5061944;28;20028;-78
2020/12/05 12:39:31;;;;;;;14.98;6.05;;;8.60;99.90;;;;;;5064099;28;20022;-79
2020/12/05 12:41:57;;;;;;;9.05;5.22;;;9.10;99.90;;;;;;5061884;28;20043;-80
2020/12/05 12:44:22;;;;;;;9.43;6.43;;;9.30;99.90;;;;;;5051923;28;20021;-78
2020/12/05 12:47:07;;;;;;;12.55;6.70;;;9.60;99.90;;;;;;5060685;28;20043;-79
2020/12/05 12:49:39;;;;;;;11.15;5.88;;;9.40;99.90;;;;;;5061519;28;20106;-82
2020/12/05 12:52:06;;;;;;;14.23;7.20;;;9.00;99.90;;;;;;5061163;28;20020;-80
2020/12/05 12:54:32;;;;;;;14.70;7.18;;;8.70;99.90;;;;;;5059249;28;20025;-80
2020/12/05 12:56:59;;;;;;;10.77;5.85;;;8.30;99.90;;;;;;5063696;28;20013;-82